Terminal Aerodrome Forecast
Issued by NWS Green Bay, WI

Home | Current Version | Previous Version | Graphics & Text | Print | Product List | Glossary On
Versions: 1 2 3 4 5 6 7 8 9 10 11 12 13
000
FTUS43 KGRB 162335
TAFGRB
TAF
KGRB 162335Z 1700/1724 14008KT P6SM -SHSN BKN090
     FM170200 14005KT P6SM BKN200
     FM171400 19007KT P6SM SCT250=

USA.gov is the U.S. government's official web portal to all federal, state and local government web resources and services.